sensor_id;sensor_type;location;lat;lon;timestamp;temperature;humidity
21928;DHT22;11128;51.096;17.190;2023-12-14T00:04:43;5.20;99.90
21928;DHT22;11128;51.096;17.190;2023-12-14T00:09:45;5.20;99.90
21928;DHT22;11128;51.096;17.190;2023-12-14T00:14:46;5.20;99.90
21928;DHT22;11128;51.096;17.190;2023-12-14T00:19:48;5.10;99.90
21928;DHT22;11128;51.096;17.190;2023-12-14T00:24:49;5.10;99.90
21928;DHT22;11128;51.096;17.190;2023-12-14T00:29:51;5.10;99.90
21928;DHT22;11128;51.096;17.190;2023-12-14T00:34:52;5.20;99.90
21928;DHT22;11128;51.096;17.190;2023-12-14T00:39:54;5.20;99.90
21928;DHT22;11128;51.096;17.190;2023-12-14T00:44:56;5.20;99.90
21928;DHT22;11128;51.096;17.190;2023-12-14T00:49:57;5.20;99.90
21928;DHT22;11128;51.096;17.190;2023-12-14T00:54:59;5.20;99.90
21928;DHT22;11128;51.096;17.190;2023-12-14T01:00:00;5.10;99.90
21928;DHT22;11128;51.096;17.190;2023-12-14T01:05:02;5.20;99.90
21928;DHT22;11128;51.096;17.190;2023-12-14T01:10:05;5.20;99.90
21928;DHT22;11128;51.096;17.190;2023-12-14T01:15:07;5.20;99.90
21928;DHT22;11128;51.096;17.190;2023-12-14T01:20:08;5.20;99.90
21928;DHT22;11128;51.096;17.190;2023-12-14T01:25:10;5.20;99.90
21928;DHT22;11128;51.096;17.190;2023-12-14T01:30:12;5.20;99.90
21928;DHT22;11128;51.096;17.190;2023-12-14T01:35:13;5.20;99.90
21928;DHT22;11128;51.096;17.190;2023-12-14T01:40:18;5.20;99.90
21928;DHT22;11128;51.096;17.190;2023-12-14T01:45:19;5.10;99.90
21928;DHT22;11128;51.096;17.190;2023-12-14T01:50:21;5.20;99.90
21928;DHT22;11128;51.096;17.190;2023-12-14T01:55:22;5.10;99.90
21928;DHT22;11128;51.096;17.190;2023-12-14T02:10:35;5.10;99.90
21928;DHT22;11128;51.096;17.190;2023-12-14T02:15:37;5.10;99.90
21928;DHT22;11128;51.096;17.190;2023-12-14T02:20:39;5.10;99.90
21928;DHT22;11128;51.096;17.190;2023-12-14T02:25:41;5.10;99.90
21928;DHT22;11128;51.096;17.190;2023-12-14T02:30:43;5.10;99.90
21928;DHT22;11128;51.096;17.190;2023-12-14T02:45:57;5.10;99.90
21928;DHT22;11128;51.096;17.190;2023-12-14T02:51:03;5.10;99.90
21928;DHT22;11128;51.096;17.190;2023-12-14T02:56:05;5.00;99.90
21928;DHT22;11128;51.096;17.190;2023-12-14T03:01:07;5.10;99.90
21928;DHT22;11128;51.096;17.190;2023-12-14T03:06:09;5.00;99.90
21928;DHT22;11128;51.096;17.190;2023-12-14T03:11:21;5.00;99.90
21928;DHT22;11128;51.096;17.190;2023-12-14T03:16:24;5.00;99.90
21928;DHT22;11128;51.096;17.190;2023-12-14T03:21:26;5.00;99.90
21928;DHT22;11128;51.096;17.190;2023-12-14T03:31:33;5.00;99.90
21928;DHT22;11128;51.096;17.190;2023-12-14T03:41:40;5.00;99.90
21928;DHT22;11128;51.096;17.190;2023-12-14T03:46:42;5.00;99.90
21928;DHT22;11128;51.096;17.190;2023-12-14T03:51:43;5.00;99.90
21928;DHT22;11128;51.096;17.190;2023-12-14T03:56:44;5.20;99.90
21928;DHT22;11128;51.096;17.190;2023-12-14T04:01:46;5.00;99.90
21928;DHT22;11128;51.096;17.190;2023-12-14T04:06:47;5.00;99.90
21928;DHT22;11128;51.096;17.190;2023-12-14T04:11:49;5.00;99.90
21928;DHT22;11128;51.096;17.190;2023-12-14T04:16:50;5.00;99.90
21928;DHT22;11128;51.096;17.190;2023-12-14T04:21:52;5.00;99.90
21928;DHT22;11128;51.096;17.190;2023-12-14T04:26:53;5.00;99.90
21928;DHT22;11128;51.096;17.190;2023-12-14T04:31:54;4.90;99.90
21928;DHT22;11128;51.096;17.190;2023-12-14T04:36:56;4.90;99.90
21928;DHT22;11128;51.096;17.190;2023-12-14T04:42:01;4.90;99.90
21928;DHT22;11128;51.096;17.190;2023-12-14T04:47:04;4.80;99.90
21928;DHT22;11128;51.096;17.190;2023-12-14T04:52:05;4.90;99.90
21928;DHT22;11128;51.096;17.190;2023-12-14T05:02:13;4.90;99.90
21928;DHT22;11128;51.096;17.190;2023-12-14T05:07:15;4.90;99.90
21928;DHT22;11128;51.096;17.190;2023-12-14T05:12:18;4.90;99.90
21928;DHT22;11128;51.096;17.190;2023-12-14T05:17:19;4.90;99.90
21928;DHT22;11128;51.096;17.190;2023-12-14T05:22:21;4.80;99.90
21928;DHT22;11128;51.096;17.190;2023-12-14T05:27:23;4.80;99.90
21928;DHT22;11128;51.096;17.190;2023-12-14T05:32:24;4.80;99.90
21928;DHT22;11128;51.096;17.190;2023-12-14T05:37:26;4.80;99.90
21928;DHT22;11128;51.096;17.190;2023-12-14T05:42:27;4.80;99.90
21928;DHT22;11128;51.096;17.190;2023-12-14T05:47:28;4.80;99.90
21928;DHT22;11128;51.096;17.190;2023-12-14T05:52:31;4.80;99.90
21928;DHT22;11128;51.096;17.190;2023-12-14T05:57:32;5.20;99.90
21928;DHT22;11128;51.096;17.190;2023-12-14T06:07:40;4.80;99.90
21928;DHT22;11128;51.096;17.190;2023-12-14T06:12:42;4.80;99.90
21928;DHT22;11128;51.096;17.190;2023-12-14T06:17:43;4.80;99.90
21928;DHT22;11128;51.096;17.190;2023-12-14T06:22:45;4.80;99.90
21928;DHT22;11128;51.096;17.190;2023-12-14T06:27:46;4.80;99.90
21928;DHT22;11128;51.096;17.190;2023-12-14T06:32:48;4.80;99.90
21928;DHT22;11128;51.096;17.190;2023-12-14T06:37:49;4.80;99.90
21928;DHT22;11128;51.096;17.190;2023-12-14T06:42:51;4.80;99.90
21928;DHT22;11128;51.096;17.190;2023-12-14T06:47:53;4.80;99.90
21928;DHT22;11128;51.096;17.190;2023-12-14T06:52:54;4.80;99.90
21928;DHT22;11128;51.096;17.190;2023-12-14T06:57:55;4.70;99.90
21928;DHT22;11128;51.096;17.190;2023-12-14T07:02:57;4.70;99.90
21928;DHT22;11128;51.096;17.190;2023-12-14T07:07:58;4.70;99.90
21928;DHT22;11128;51.096;17.190;2023-12-14T07:12:59;4.70;99.90
21928;DHT22;11128;51.096;17.190;2023-12-14T07:18:01;4.70;99.90
21928;DHT22;11128;51.096;17.190;2023-12-14T07:23:02;4.70;99.90
21928;DHT22;11128;51.096;17.190;2023-12-14T07:28:04;4.70;99.90
21928;DHT22;11128;51.096;17.190;2023-12-14T07:33:06;4.70;99.90
21928;DHT22;11128;51.096;17.190;2023-12-14T07:38:20;4.70;99.90
21928;DHT22;11128;51.096;17.190;2023-12-14T07:43:41;4.70;99.90
21928;DHT22;11128;51.096;17.190;2023-12-14T07:48:56;4.70;99.90
21928;DHT22;11128;51.096;17.190;2023-12-14T07:54:16;4.70;99.90
21928;DHT22;11128;51.096;17.190;2023-12-14T07:59:18;4.70;99.90
21928;DHT22;11128;51.096;17.190;2023-12-14T08:04:20;4.70;99.90
21928;DHT22;11128;51.096;17.190;2023-12-14T08:09:21;4.70;99.90
21928;DHT22;11128;51.096;17.190;2023-12-14T08:14:22;4.70;99.90
21928;DHT22;11128;51.096;17.190;2023-12-14T08:19:24;4.70;99.90
21928;DHT22;11128;51.096;17.190;2023-12-14T08:24:26;4.70;99.90
21928;DHT22;11128;51.096;17.190;2023-12-14T08:29:27;4.80;99.90
21928;DHT22;11128;51.096;17.190;2023-12-14T08:34:29;4.70;99.90
21928;DHT22;11128;51.096;17.190;2023-12-14T08:39:31;4.40;99.90
21928;DHT22;11128;51.096;17.190;2023-12-14T08:44:33;4.70;99.90
21928;DHT22;11128;51.096;17.190;2023-12-14T08:49:34;4.70;99.90
21928;DHT22;11128;51.096;17.190;2023-12-14T08:54:36;4.70;99.90
21928;DHT22;11128;51.096;17.190;2023-12-14T09:04:43;4.70;99.90
21928;DHT22;11128;51.096;17.190;2023-12-14T09:14:49;4.70;99.90
21928;DHT22;11128;51.096;17.190;2023-12-14T09:19:54;4.70;99.90
21928;DHT22;11128;51.096;17.190;2023-12-14T09:24:56;4.70;99.90
21928;DHT22;11128;51.096;17.190;2023-12-14T09:29:58;4.70;99.90
21928;DHT22;11128;51.096;17.190;2023-12-14T09:35:00;4.70;99.90
21928;DHT22;11128;51.096;17.190;2023-12-14T09:40:01;4.80;99.90
21928;DHT22;11128;51.096;17.190;2023-12-14T09:45:04;4.70;99.90
21928;DHT22;11128;51.096;17.190;2023-12-14T09:50:08;4.80;99.90
21928;DHT22;11128;51.096;17.190;2023-12-14T10:00:36;4.70;99.90
21928;DHT22;11128;51.096;17.190;2023-12-14T10:05:39;4.70;99.90
21928;DHT22;11128;51.096;17.190;2023-12-14T10:10:41;4.70;99.90
21928;DHT22;11128;51.096;17.190;2023-12-14T10:15:47;4.70;99.90
21928;DHT22;11128;51.096;17.190;2023-12-14T10:20:48;4.70;99.90
21928;DHT22;11128;51.096;17.190;2023-12-14T10:30:55;4.80;99.90
21928;DHT22;11128;51.096;17.190;2023-12-14T10:35:58;4.90;99.90
21928;DHT22;11128;51.096;17.190;2023-12-14T10:41:01;4.80;99.90
21928;DHT22;11128;51.096;17.190;2023-12-14T10:46:07;4.90;99.90
21928;DHT22;11128;51.096;17.190;2023-12-14T10:51:14;4.90;99.90
21928;DHT22;11128;51.096;17.190;2023-12-14T10:56:18;4.90;99.90
21928;DHT22;11128;51.096;17.190;2023-12-14T11:01:21;4.90;99.90
21928;DHT22;11128;51.096;17.190;2023-12-14T11:11:55;4.90;99.90
21928;DHT22;11128;51.096;17.190;2023-12-14T11:17:07;4.90;99.90
21928;DHT22;11128;51.096;17.190;2023-12-14T11:22:24;4.90;99.90
21928;DHT22;11128;51.096;17.190;2023-12-14T11:27:29;4.90;99.90
21928;DHT22;11128;51.096;17.190;2023-12-14T11:32:32;4.90;99.90
21928;DHT22;11128;51.096;17.190;2023-12-14T11:37:34;4.80;99.90
21928;DHT22;11128;51.096;17.190;2023-12-14T11:47:42;4.80;99.90
21928;DHT22;11128;51.096;17.190;2023-12-14T11:52:44;2.90;99.90
21928;DHT22;11128;51.096;17.190;2023-12-14T11:57:46;4.80;99.90
21928;DHT22;11128;51.096;17.190;2023-12-14T12:02:50;4.80;99.90
21928;DHT22;11128;51.096;17.190;2023-12-14T12:07:57;4.80;99.90
21928;DHT22;11128;51.096;17.190;2023-12-14T12:13:02;4.80;99.90
21928;DHT22;11128;51.096;17.190;2023-12-14T12:18:11;4.90;99.90
21928;DHT22;11128;51.096;17.190;2023-12-14T12:23:32;4.80;99.90
21928;DHT22;11128;51.096;17.190;2023-12-14T12:28:33;4.70;99.90
21928;DHT22;11128;51.096;17.190;2023-12-14T12:33:35;4.80;99.90
21928;DHT22;11128;51.096;17.190;2023-12-14T12:38:38;7.20;99.90
21928;DHT22;11128;51.096;17.190;2023-12-14T12:43:41;4.60;99.90
21928;DHT22;11128;51.096;17.190;2023-12-14T12:53:48;4.60;99.90
21928;DHT22;11128;51.096;17.190;2023-12-14T12:58:54;4.60;99.90
21928;DHT22;11128;51.096;17.190;2023-12-14T13:09:03;4.60;99.90
21928;DHT22;11128;51.096;17.190;2023-12-14T13:14:06;4.50;99.90
21928;DHT22;11128;51.096;17.190;2023-12-14T13:24:14;4.60;99.90
21928;DHT22;11128;51.096;17.190;2023-12-14T13:29:15;4.60;99.90
21928;DHT22;11128;51.096;17.190;2023-12-14T13:39:23;4.70;99.90
21928;DHT22;11128;51.096;17.190;2023-12-14T13:44:27;4.70;99.90
21928;DHT22;11128;51.096;17.190;2023-12-14T13:49:28;4.70;99.90
21928;DHT22;11128;51.096;17.190;2023-12-14T13:54:30;4.60;99.90
21928;DHT22;11128;51.096;17.190;2023-12-14T13:59:31;4.60;99.90
21928;DHT22;11128;51.096;17.190;2023-12-14T14:04:33;4.50;99.90
21928;DHT22;11128;51.096;17.190;2023-12-14T14:09:34;4.50;99.90
21928;DHT22;11128;51.096;17.190;2023-12-14T14:19:44;4.50;99.90
21928;DHT22;11128;51.096;17.190;2023-12-14T14:24:46;4.50;99.90
21928;DHT22;11128;51.096;17.190;2023-12-14T14:29:49;4.50;99.90
21928;DHT22;11128;51.096;17.190;2023-12-14T14:34:51;4.40;99.90
21928;DHT22;11128;51.096;17.190;2023-12-14T14:39:54;4.40;99.90
21928;DHT22;11128;51.096;17.190;2023-12-14T14:44:56;4.50;99.90
21928;DHT22;11128;51.096;17.190;2023-12-14T14:49:57;4.40;99.90
21928;DHT22;11128;51.096;17.190;2023-12-14T14:55:04;4.40;99.90
21928;DHT22;11128;51.096;17.190;2023-12-14T15:00:06;4.30;99.90
21928;DHT22;11128;51.096;17.190;2023-12-14T15:05:08;4.30;99.90
21928;DHT22;11128;51.096;17.190;2023-12-14T15:10:10;4.30;99.90
21928;DHT22;11128;51.096;17.190;2023-12-14T15:15:14;4.30;99.90
21928;DHT22;11128;51.096;17.190;2023-12-14T15:30:25;4.10;99.90
21928;DHT22;11128;51.096;17.190;2023-12-14T15:35:27;4.10;99.90
21928;DHT22;11128;51.096;17.190;2023-12-14T15:40:29;4.00;99.90
21928;DHT22;11128;51.096;17.190;2023-12-14T15:45:31;3.90;99.90
21928;DHT22;11128;51.096;17.190;2023-12-14T15:50:37;3.90;99.90
21928;DHT22;11128;51.096;17.190;2023-12-14T15:55:42;3.90;99.90
21928;DHT22;11128;51.096;17.190;2023-12-14T16:00:43;3.90;99.90
21928;DHT22;11128;51.096;17.190;2023-12-14T16:05:44;1.40;99.90
21928;DHT22;11128;51.096;17.190;2023-12-14T16:15:52;3.70;99.90
21928;DHT22;11128;51.096;17.190;2023-12-14T16:26:01;3.80;99.90
21928;DHT22;11128;51.096;17.190;2023-12-14T16:31:06;3.90;99.90
21928;DHT22;11128;51.096;17.190;2023-12-14T16:36:12;3.80;99.90
21928;DHT22;11128;51.096;17.190;2023-12-14T16:41:22;3.70;99.90
21928;DHT22;11128;51.096;17.190;2023-12-14T16:46:24;3.70;99.90
21928;DHT22;11128;51.096;17.190;2023-12-14T16:51:26;3.80;99.90
21928;DHT22;11128;51.096;17.190;2023-12-14T16:56:29;3.80;99.90
21928;DHT22;11128;51.096;17.190;2023-12-14T17:01:31;3.80;99.90
21928;DHT22;11128;51.096;17.190;2023-12-14T17:06:33;3.90;99.90
21928;DHT22;11128;51.096;17.190;2023-12-14T17:11:38;3.80;99.90
21928;DHT22;11128;51.096;17.190;2023-12-14T17:16:40;3.70;99.90
21928;DHT22;11128;51.096;17.190;2023-12-14T17:21:41;3.70;99.90
21928;DHT22;11128;51.096;17.190;2023-12-14T17:26:43;3.70;99.90
21928;DHT22;11128;51.096;17.190;2023-12-14T17:31:44;3.70;99.90
21928;DHT22;11128;51.096;17.190;2023-12-14T17:36:46;3.70;99.90
21928;DHT22;11128;51.096;17.190;2023-12-14T17:41:47;3.70;99.90
21928;DHT22;11128;51.096;17.190;2023-12-14T17:46:50;3.70;99.90
21928;DHT22;11128;51.096;17.190;2023-12-14T17:51:52;4.00;99.90
21928;DHT22;11128;51.096;17.190;2023-12-14T17:56:53;3.70;99.90
21928;DHT22;11128;51.096;17.190;2023-12-14T18:07:02;3.60;99.90
21928;DHT22;11128;51.096;17.190;2023-12-14T18:12:11;3.60;99.90
21928;DHT22;11128;51.096;17.190;2023-12-14T18:17:13;3.60;99.90
21928;DHT22;11128;51.096;17.190;2023-12-14T18:32:32;5.60;99.90
21928;DHT22;11128;51.096;17.190;2023-12-14T18:47:43;3.20;99.90
21928;DHT22;11128;51.096;17.190;2023-12-14T18:57:52;3.20;99.90
21928;DHT22;11128;51.096;17.190;2023-12-14T19:02:53;3.20;99.90
21928;DHT22;11128;51.096;17.190;2023-12-14T19:07:55;3.20;99.90
21928;DHT22;11128;51.096;17.190;2023-12-14T19:12:57;3.20;99.90
21928;DHT22;11128;51.096;17.190;2023-12-14T19:18:00;3.20;99.90
21928;DHT22;11128;51.096;17.190;2023-12-14T19:23:02;3.20;99.90
21928;DHT22;11128;51.096;17.190;2023-12-14T19:28:05;3.20;99.90
21928;DHT22;11128;51.096;17.190;2023-12-14T19:33:06;3.20;99.90
21928;DHT22;11128;51.096;17.190;2023-12-14T19:38:08;3.00;99.90
21928;DHT22;11128;51.096;17.190;2023-12-14T19:43:09;3.10;99.90
21928;DHT22;11128;51.096;17.190;2023-12-14T19:48:12;3.20;99.90
21928;DHT22;11128;51.096;17.190;2023-12-14T19:53:14;3.00;99.90
21928;DHT22;11128;51.096;17.190;2023-12-14T19:58:20;2.90;99.90
21928;DHT22;11128;51.096;17.190;2023-12-14T20:03:21;2.80;99.90
21928;DHT22;11128;51.096;17.190;2023-12-14T20:08:27;2.70;99.90
21928;DHT22;11128;51.096;17.190;2023-12-14T20:13:29;2.70;99.90
21928;DHT22;11128;51.096;17.190;2023-12-14T20:28:44;2.70;99.90
21928;DHT22;11128;51.096;17.190;2023-12-14T20:38:51;2.60;99.90
21928;DHT22;11128;51.096;17.190;2023-12-14T20:43:52;2.70;99.90
21928;DHT22;11128;51.096;17.190;2023-12-14T20:48:54;2.60;99.90
21928;DHT22;11128;51.096;17.190;2023-12-14T20:53:55;2.70;99.90
21928;DHT22;11128;51.096;17.190;2023-12-14T20:58:57;2.90;99.90
21928;DHT22;11128;51.096;17.190;2023-12-14T21:03:59;2.60;99.90
21928;DHT22;11128;51.096;17.190;2023-12-14T21:09:01;2.60;99.90
21928;DHT22;11128;51.096;17.190;2023-12-14T21:14:02;2.70;99.90
21928;DHT22;11128;51.096;17.190;2023-12-14T21:19:04;2.60;99.90
21928;DHT22;11128;51.096;17.190;2023-12-14T21:24:05;2.50;99.90
21928;DHT22;11128;51.096;17.190;2023-12-14T21:29:07;2.50;99.90
21928;DHT22;11128;51.096;17.190;2023-12-14T21:34:09;2.50;99.90
21928;DHT22;11128;51.096;17.190;2023-12-14T21:44:16;2.20;99.90
21928;DHT22;11128;51.096;17.190;2023-12-14T21:54:24;2.20;99.90
21928;DHT22;11128;51.096;17.190;2023-12-14T22:04:31;2.10;99.90
21928;DHT22;11128;51.096;17.190;2023-12-14T22:29:52;2.00;99.90
21928;DHT22;11128;51.096;17.190;2023-12-14T22:40:02;1.90;99.90
21928;DHT22;11128;51.096;17.190;2023-12-14T22:45:04;1.80;99.90
21928;DHT22;11128;51.096;17.190;2023-12-14T22:50:14;1.90;99.90
21928;DHT22;11128;51.096;17.190;2023-12-14T22:55:15;2.10;99.90
21928;DHT22;11128;51.096;17.190;2023-12-14T23:00:17;2.10;99.90
21928;DHT22;11128;51.096;17.190;2023-12-14T23:05:23;2.30;99.90
21928;DHT22;11128;51.096;17.190;2023-12-14T23:10:25;1.70;99.90
21928;DHT22;11128;51.096;17.190;2023-12-14T23:25:37;1.70;99.90
21928;DHT22;11128;51.096;17.190;2023-12-14T23:30:40;1.70;99.90
21928;DHT22;11128;51.096;17.190;2023-12-14T23:35:42;1.70;99.90
21928;DHT22;11128;51.096;17.190;2023-12-14T23:40:44;1.80;99.90
21928;DHT22;11128;51.096;17.190;2023-12-14T23:50:52;1.70;99.90
21928;DHT22;11128;51.096;17.190;2023-12-14T23:55:54;1.90;99.90
